Time;durP1;ratioP1;P1;durP2;ratioP2;P2;SDS_P1;SDS_P2;PMS_P1;PMS_P2;Temp;Humidity;BMP_temperature;BMP_pressure;BME280_temperature;BME280_humidity;BME280_pressure;Samples;Min_cycle;Max_cycle;Signal;HPM_P1;HPM_P2
2021/03/31 00:02:08;;;;;;;22.17;13.88;;;14.30;99.90;;;;;;5109076;28;20179;-69
2021/03/31 00:04:34;;;;;;;21.25;14.65;;;14.40;99.90;;;;;;5109212;28;20222;-68
2021/03/31 00:07:00;;;;;;;25.55;14.48;;;14.50;99.90;;;;;;5106322;28;20187;-66
2021/03/31 00:09:26;;;;;;;30.98;14.18;;;14.40;99.90;;;;;;5109182;28;20185;-66
2021/03/31 00:11:52;;;;;;;22.77;14.48;;;14.50;99.90;;;;;;5108229;28;20183;-68
2021/03/31 00:14:18;;;;;;;18.20;13.63;;;14.10;99.90;;;;;;5108981;28;20223;-68
2021/03/31 00:16:44;;;;;;;17.60;12.68;;;13.90;99.90;;;;;;5106482;28;20163;-68
2021/03/31 00:19:10;;;;;;;20.50;12.83;;;14.10;99.90;;;;;;5108866;28;20195;-69
2021/03/31 00:21:36;;;;;;;19.98;13.55;;;14.00;99.90;;;;;;5108668;28;20174;-68
2021/03/31 00:24:02;;;;;;;21.13;13.65;;;14.30;99.90;;;;;;5108878;28;20158;-66
2021/03/31 00:26:28;;;;;;;23.00;13.53;;;14.20;99.90;;;;;;5106222;28;20618;-67
2021/03/31 00:28:53;;;;;;;20.20;13.47;;;14.30;99.90;;;;;;5108452;28;20416;-66
2021/03/31 00:31:19;;;;;;;22.53;13.77;;;14.10;99.90;;;;;;5108919;28;20191;-68
2021/03/31 00:33:45;;;;;;;25.80;13.90;;;14.00;99.90;;;;;;5090507;28;20171;-68
2021/03/31 00:36:10;;;;;;;22.43;14.07;;;13.90;99.90;;;;;;5106071;28;20167;-68
2021/03/31 00:38:36;;;;;;;23.43;14.47;;;13.90;99.90;;;;;;5108410;28;20167;-68
2021/03/31 00:41:05;;;;;;;28.47;12.73;;;13.90;99.90;;;;;;5090299;28;20167;-68
2021/03/31 00:43:31;;;;;;;22.87;13.17;;;13.60;99.90;;;;;;5108655;28;20159;-68
2021/03/31 00:46:00;;;;;;;19.17;14.00;;;13.40;99.90;;;;;;5105784;28;20160;-67
2021/03/31 00:48:26;;;;;;;20.57;14.43;;;13.40;99.90;;;;;;5108514;28;20155;-67
2021/03/31 00:50:58;;;;;;;24.90;14.53;;;13.30;99.90;;;;;;5108350;28;20171;-68
2021/03/31 00:53:43;;;;;;;23.03;13.97;;;13.40;99.90;;;;;;5089949;28;20179;-67
2021/03/31 00:56:09;;;;;;;27.30;13.70;;;13.30;99.90;;;;;;5105723;28;20155;-68
2021/03/31 00:58:36;;;;;;;23.93;14.63;;;13.20;99.90;;;;;;5108221;28;20171;-68
2021/03/31 01:01:02;;;;;;;22.43;13.70;;;13.10;99.90;;;;;;5108147;28;20190;-68
2021/03/31 01:03:30;;;;;;;20.33;14.40;;;13.00;99.90;;;;;;5108114;28;20182;-68
2021/03/31 01:05:56;;;;;;;21.20;14.05;;;13.00;99.90;;;;;;5086009;28;20160;-68
2021/03/31 01:08:22;;;;;;;22.23;14.50;;;13.00;99.90;;;;;;5107855;28;20175;-68
2021/03/31 01:10:52;;;;;;;18.53;14.83;;;13.00;99.90;;;;;;5108204;28;20230;-68
2021/03/31 01:13:45;;;;;;;27.05;15.68;;;13.00;99.90;;;;;;5089898;28;20207;-68
2021/03/31 01:16:46;;;;;;;20.00;14.37;;;13.00;99.90;;;;;;5105366;28;20529;-68
2021/03/31 01:19:17;;;;;;;29.30;14.73;;;12.90;99.90;;;;;;5094172;28;20194;-68
2021/03/31 01:22:01;;;;;;;21.67;14.07;;;12.80;99.90;;;;;;5089332;28;20710;-68
2021/03/31 01:25:03;;;;;;;22.40;13.73;;;12.90;99.90;;;;;;5107688;28;20221;-68
2021/03/31 01:28:06;;;;;;;24.37;13.30;;;13.10;99.90;;;;;;5106758;28;20177;-68
2021/03/31 01:30:45;;;;;;;20.63;12.70;;;13.30;99.90;;;;;;5107634;28;20179;-68
2021/03/31 01:33:36;;;;;;;30.00;14.70;;;13.10;99.90;;;;;;5107290;28;20676;-68
2021/03/31 01:36:03;;;;;;;20.33;13.73;;;13.10;99.90;;;;;;5104723;28;20186;-68
2021/03/31 01:38:29;;;;;;;19.97;13.93;;;13.00;99.90;;;;;;5107131;28;20163;-68
2021/03/31 01:40:58;;;;;;;24.50;14.20;;;13.00;99.90;;;;;;5107371;28;20163;-68
2021/03/31 01:43:25;;;;;;;21.80;14.77;;;12.90;99.90;;;;;;5107351;28;20175;-68
2021/03/31 01:45:55;;;;;;;20.03;13.80;;;12.70;99.90;;;;;;5104668;28;20159;-68
2021/03/31 01:48:26;;;;;;;21.07;13.60;;;12.60;99.90;;;;;;5107522;28;20534;-68
2021/03/31 01:50:56;;;;;;;20.23;13.43;;;12.50;99.90;;;;;;5107144;28;20159;-68
2021/03/31 01:53:23;;;;;;;27.00;14.00;;;12.50;99.90;;;;;;5088828;28;20266;-68
2021/03/31 01:55:54;;;;;;;27.45;14.55;;;12.40;99.90;;;;;;5104569;28;20191;-68
2021/03/31 01:58:21;;;;;;;17.37;13.60;;;12.30;99.90;;;;;;5107000;28;20184;-68
2021/03/31 02:00:48;;;;;;;24.23;14.20;;;12.30;99.90;;;;;;5107115;28;20179;-68
2021/03/31 02:03:16;;;;;;;20.73;14.07;;;12.30;99.90;;;;;;5088528;28;20175;-68
2021/03/31 02:05:43;;;;;;;19.87;14.10;;;12.30;99.90;;;;;;5104283;28;20190;-68
2021/03/31 02:08:10;;;;;;;23.63;14.37;;;12.30;99.90;;;;;;5106689;28;20239;-68
2021/03/31 02:10:36;;;;;;;21.07;14.47;;;12.30;99.90;;;;;;5106938;28;20159;-68
2021/03/31 02:13:04;;;;;;;27.77;13.93;;;12.30;99.90;;;;;;5106433;28;20202;-68
2021/03/31 02:15:32;;;;;;;26.53;14.83;;;12.30;99.90;;;;;;5085636;28;20155;-68
2021/03/31 02:18:00;;;;;;;24.67;14.13;;;12.30;99.90;;;;;;5106588;28;20251;-68
2021/03/31 02:20:26;;;;;;;21.37;14.30;;;12.30;99.90;;;;;;5106639;28;20535;-68
2021/03/31 02:22:53;;;;;;;26.37;13.87;;;12.30;99.90;;;;;;5087995;28;20545;-68
2021/03/31 02:25:20;;;;;;;26.10;14.73;;;12.30;99.90;;;;;;5103997;28;20155;-68
2021/03/31 02:27:46;;;;;;;35.93;15.53;;;12.20;99.90;;;;;;5088370;28;20239;-67
2021/03/31 02:30:17;;;;;;;27.07;14.87;;;12.20;99.90;;;;;;5106270;28;20237;-68
2021/03/31 02:32:52;;;;;;;25.37;14.60;;;12.20;99.90;;;;;;5088638;28;20205;-68
2021/03/31 02:35:21;;;;;;;27.93;15.07;;;12.10;99.90;;;;;;5103773;28;20344;-68
2021/03/31 02:37:50;;;;;;;28.87;13.77;;;12.10;99.90;;;;;;5106230;28;20195;-68
2021/03/31 02:40:20;;;;;;;23.07;13.87;;;12.10;99.90;;;;;;5106640;28;20171;-68
2021/03/31 02:42:46;;;;;;;23.17;13.93;;;12.10;99.90;;;;;;5106175;28;20167;-68
2021/03/31 02:45:16;;;;;;;18.17;13.00;;;12.10;99.90;;;;;;5085640;28;20176;-68
2021/03/31 02:47:43;;;;;;;21.60;14.20;;;12.10;99.90;;;;;;5106179;28;20172;-69
2021/03/31 02:50:12;;;;;;;21.57;13.87;;;12.10;99.90;;;;;;5106002;28;20193;-67
2021/03/31 02:52:39;;;;;;;20.33;14.53;;;12.10;99.90;;;;;;5105889;28;20199;-68
2021/03/31 02:55:07;;;;;;;22.43;14.23;;;12.10;99.90;;;;;;5104493;28;20639;-68
2021/03/31 02:57:35;;;;;;;22.77;15.13;;;12.10;99.90;;;;;;5105341;28;20182;-68
2021/03/31 03:00:07;;;;;;;24.70;14.37;;;12.00;99.90;;;;;;5105891;28;20535;-68
2021/03/31 03:02:35;;;;;;;27.63;14.47;;;12.00;99.90;;;;;;5105927;28;20179;-68
2021/03/31 03:05:02;;;;;;;23.83;14.23;;;12.10;99.90;;;;;;5104867;28;20159;-68
2021/03/31 03:07:27;;;;;;;23.73;13.57;;;12.10;99.90;;;;;;5086280;28;20723;-68
2021/03/31 03:09:54;;;;;;;24.63;13.17;;;12.10;99.90;;;;;;5105904;28;20167;-68
2021/03/31 03:12:21;;;;;;;17.53;13.20;;;12.20;99.90;;;;;;5087643;28;20191;-68
2021/03/31 03:14:52;;;;;;;31.77;14.90;;;12.10;99.90;;;;;;5105929;28;20163;-68
2021/03/31 03:17:18;;;;;;;24.63;14.43;;;12.10;99.90;;;;;;5103852;28;20193;-68
2021/03/31 03:19:44;;;;;;;23.17;14.30;;;12.10;99.90;;;;;;5105902;28;20168;-67
2021/03/31 03:22:12;;;;;;;21.23;14.40;;;12.10;99.90;;;;;;5105445;28;20171;-68
2021/03/31 03:24:38;;;;;;;19.10;13.93;;;12.00;99.90;;;;;;5105830;28;20227;-68
2021/03/31 03:27:06;;;;;;;22.63;15.03;;;12.00;99.90;;;;;;5102929;28;20164;-68
2021/03/31 03:29:32;;;;;;;19.20;13.67;;;11.90;99.90;;;;;;5109133;28;20233;-68
2021/03/31 03:31:59;;;;;;;22.10;14.37;;;11.90;99.90;;;;;;5109623;28;20191;-68
2021/03/31 03:34:25;;;;;;;19.77;13.77;;;12.00;99.90;;;;;;5109904;28;20246;-68
2021/03/31 03:36:51;;;;;;;18.43;13.53;;;12.10;99.90;;;;;;5088634;28;20227;-68
2021/03/31 03:39:19;;;;;;;22.73;14.27;;;12.10;99.90;;;;;;5109886;28;20155;-68
2021/03/31 03:41:44;;;;;;;22.30;13.90;;;12.00;99.90;;;;;;5109762;28;20171;-68
2021/03/31 03:44:10;;;;;;;30.87;15.67;;;11.90;99.90;;;;;;5109348;28;20174;-68
2021/03/31 03:46:36;;;;;;;22.97;14.37;;;11.90;99.90;;;;;;5107121;28;20171;-68
2021/03/31 03:49:04;;;;;;;20.20;13.73;;;11.90;99.90;;;;;;5109499;28;20163;-68
2021/03/31 03:51:31;;;;;;;22.50;13.83;;;11.90;99.90;;;;;;5109543;28;20668;-68
2021/03/31 03:53:57;;;;;;;21.87;13.77;;;11.80;99.90;;;;;;5109074;28;20174;-68
2021/03/31 03:56:24;;;;;;;17.17;13.10;;;11.80;99.90;;;;;;5106820;28;20160;-68
2021/03/31 03:58:50;;;;;;;25.23;13.63;;;11.80;99.90;;;;;;5109392;28;20193;-68
2021/03/31 04:01:17;;;;;;;20.93;12.63;;;11.70;99.90;;;;;;5109566;28;20159;-68
2021/03/31 04:03:43;;;;;;;29.17;13.87;;;11.60;99.90;;;;;;5109180;28;20160;-68
2021/03/31 04:06:09;;;;;;;18.37;13.63;;;11.60;99.90;;;;;;5106667;28;20159;-68
2021/03/31 04:08:36;;;;;;;26.97;13.40;;;11.60;99.90;;;;;;5108913;28;20543;-68
2021/03/31 04:11:03;;;;;;;19.67;13.93;;;11.50;99.90;;;;;;5109058;28;20170;-68
2021/03/31 04:13:31;;;;;;;27.60;13.63;;;11.50;99.90;;;;;;5109122;28;20550;-68
2021/03/31 04:16:02;;;;;;;36.70;14.67;;;11.40;99.90;;;;;;5088048;28;20189;-68
2021/03/31 04:18:29;;;;;;;26.93;14.57;;;11.40;99.90;;;;;;5109126;28;20159;-68
2021/03/31 04:20:58;;;;;;;19.87;14.27;;;11.40;99.90;;;;;;5090561;28;20166;-68
2021/03/31 04:23:25;;;;;;;18.93;13.67;;;11.50;99.90;;;;;;5108495;28;20174;-68
2021/03/31 04:25:51;;;;;;;23.83;14.13;;;11.40;99.90;;;;;;5106355;28;20197;-68
2021/03/31 04:28:20;;;;;;;23.97;15.00;;;11.40;99.90;;;;;;5109005;28;20164;-68
2021/03/31 04:30:46;;;;;;;28.05;17.02;;;11.40;99.90;;;;;;5108449;28;20524;-68
2021/03/31 04:33:14;;;;;;;27.60;16.10;;;11.50;99.90;;;;;;5108513;28;20306;-68
2021/03/31 04:35:41;;;;;;;27.23;15.23;;;11.40;99.90;;;;;;5106203;28;20526;-68
2021/03/31 04:38:12;;;;;;;25.40;15.20;;;11.40;99.90;;;;;;5108289;28;20164;-68
2021/03/31 04:40:48;;;;;;;35.10;15.37;;;11.40;99.90;;;;;;5108555;28;20163;-68
2021/03/31 04:43:14;;;;;;;44.57;15.20;;;11.40;99.90;;;;;;5108462;28;20171;-68
2021/03/31 04:45:39;;;;;;;24.00;14.53;;;11.40;99.90;;;;;;5106048;28;20159;-68
2021/03/31 04:48:05;;;;;;;34.03;15.97;;;11.40;99.90;;;;;;5108465;28;20160;-68
2021/03/31 04:50:31;;;;;;;30.33;14.43;;;11.40;99.90;;;;;;5108452;28;20163;-68
2021/03/31 04:52:57;;;;;;;30.57;14.03;;;11.30;99.90;;;;;;5107829;28;20224;-68
2021/03/31 04:55:22;;;;;;;30.50;14.67;;;11.20;99.90;;;;;;5105790;28;20566;-68
2021/03/31 04:57:48;;;;;;;26.27;14.17;;;11.20;99.90;;;;;;5108520;28;20191;-68
2021/03/31 05:00:14;;;;;;;29.00;14.93;;;11.20;99.90;;;;;;5108109;28;20168;-68
2021/03/31 05:02:40;;;;;;;30.97;15.87;;;11.20;99.90;;;;;;5107960;28;20580;-68
2021/03/31 05:05:06;;;;;;;22.70;14.53;;;11.20;99.90;;;;;;5106364;28;20164;-68
2021/03/31 05:07:31;;;;;;;26.60;15.20;;;11.20;99.90;;;;;;5107053;28;20182;-68
2021/03/31 05:09:57;;;;;;;25.57;15.27;;;11.30;99.90;;;;;;5108011;28;20164;-68
2021/03/31 05:12:24;;;;;;;32.67;15.13;;;11.30;99.90;;;;;;5107978;28;20202;-68
2021/03/31 05:14:51;;;;;;;23.33;14.80;;;11.20;99.90;;;;;;5108002;28;20186;-68
2021/03/31 05:17:16;;;;;;;27.13;14.40;;;11.20;99.90;;;;;;5087362;28;20159;-68
2021/03/31 05:19:42;;;;;;;26.47;14.57;;;11.00;99.90;;;;;;5107856;28;20166;-68
2021/03/31 05:22:08;;;;;;;30.70;14.10;;;11.00;99.90;;;;;;5107295;28;20179;-68
2021/03/31 05:24:33;;;;;;;33.57;14.07;;;11.00;99.90;;;;;;5107741;28;20183;-68
2021/03/31 05:26:59;;;;;;;34.80;14.53;;;11.00;99.90;;;;;;5105106;28;20234;-68
2021/03/31 05:29:24;;;;;;;21.73;13.37;;;10.90;99.90;;;;;;5107437;28;20223;-68
2021/03/31 05:31:50;;;;;;;22.53;14.17;;;11.00;99.90;;;;;;5107423;28;20190;-68
2021/03/31 05:34:16;;;;;;;25.83;14.13;;;11.00;99.90;;;;;;5107273;28;20182;-68
2021/03/31 05:36:41;;;;;;;32.33;15.37;;;11.10;99.90;;;;;;5086492;28;20187;-68
2021/03/31 05:39:07;;;;;;;31.77;14.97;;;11.10;99.90;;;;;;5107034;28;20227;-68
2021/03/31 05:41:33;;;;;;;25.73;14.63;;;11.00;99.90;;;;;;5089201;28;20182;-68
2021/03/31 05:44:00;;;;;;;29.00;14.10;;;11.00;99.90;;;;;;5106980;28;20171;-69
2021/03/31 05:46:26;;;;;;;23.30;13.90;;;11.00;99.90;;;;;;5104788;28;20171;-68
2021/03/31 05:48:55;;;;;;;28.07;14.50;;;10.90;99.90;;;;;;5088921;28;20512;-68
2021/03/31 05:51:20;;;;;;;26.00;14.43;;;10.90;99.90;;;;;;5106645;28;20205;-68
2021/03/31 05:53:46;;;;;;;32.70;15.27;;;11.00;99.90;;;;;;5106721;28;20172;-68
2021/03/31 05:56:15;;;;;;;28.77;14.33;;;11.00;99.90;;;;;;5104465;28;20175;-68
2021/03/31 05:58:41;;;;;;;36.27;14.60;;;10.90;99.90;;;;;;5106994;28;20189;-68
2021/03/31 06:01:07;;;;;;;30.70;14.47;;;11.00;99.90;;;;;;5106878;28;20167;-68
2021/03/31 06:03:33;;;;;;;26.63;14.03;;;11.10;99.90;;;;;;5106771;28;20179;-68
2021/03/31 06:06:00;;;;;;;26.73;14.00;;;11.10;99.90;;;;;;5104424;28;20174;-68
2021/03/31 06:08:26;;;;;;;28.77;15.53;;;11.10;99.90;;;;;;5088391;28;20546;-68
2021/03/31 06:10:59;;;;;;;26.67;14.93;;;11.10;99.90;;;;;;5106711;28;20565;-68
2021/03/31 06:13:24;;;;;;;29.00;14.70;;;11.20;99.90;;;;;;5106636;28;20191;-68
2021/03/31 06:15:50;;;;;;;28.13;16.40;;;11.30;99.90;;;;;;5104097;28;20219;-68
2021/03/31 06:18:17;;;;;;;24.57;15.40;;;11.30;99.90;;;;;;5106938;28;20159;-68
2021/03/31 06:20:50;;;;;;;31.13;16.07;;;11.30;99.90;;;;;;5088115;28;20538;-68
2021/03/31 06:24:20;;;;;;;25.27;15.37;;;11.40;99.90;;;;;;5105800;28;20171;-68
2021/03/31 06:26:32;;;;;;;35.50;17.60;;;11.50;99.90;;;;;;5085481;28;20258;-68
2021/03/31 06:29:07;;;;;;;40.07;19.87;;;11.60;99.90;;;;;;5087509;28;20227;-68
2021/03/31 06:31:35;;;;;;;35.93;18.73;;;11.70;99.90;;;;;;5106382;28;20683;-68
2021/03/31 06:34:09;;;;;;;31.37;17.43;;;11.70;99.90;;;;;;5105886;28;20263;-68
2021/03/31 06:36:49;;;;;;;28.87;17.33;;;11.80;99.90;;;;;;5103706;28;20241;-68
2021/03/31 06:39:26;;;;;;;33.67;19.27;;;11.90;99.90;;;;;;5105701;28;20257;-68
2021/03/31 06:41:59;;;;;;;30.03;19.17;;;12.00;99.90;;;;;;5106120;28;20177;-68
2021/03/31 06:47:30;;;;;;;29.77;18.97;;;12.10;99.90;;;;;;5104436;28;20163;-68
2021/03/31 06:49:58;;;;;;;32.50;17.93;;;12.30;99.90;;;;;;5105841;28;20232;-68
2021/03/31 06:52:24;;;;;;;35.50;16.87;;;12.40;99.90;;;;;;5087337;28;20229;-68
2021/03/31 06:54:59;;;;;;;39.63;15.38;;;12.60;99.90;;;;;;5087890;28;20171;-68
2021/03/31 06:57:29;;;;;;;20.15;11.63;;;12.80;99.90;;;;;;5104701;28;20525;-68
2021/03/31 07:00:12;;;;;;;16.35;11.00;;;13.30;99.90;;;;;;5105540;28;20155;-68
2021/03/31 07:02:39;;;;;;;21.15;10.05;;;13.50;99.90;;;;;;5086684;28;20163;-68
2021/03/31 07:05:06;;;;;;;21.92;10.38;;;13.60;99.90;;;;;;5103968;28;20186;-68
2021/03/31 07:07:34;;;;;;;14.85;8.75;;;13.90;99.90;;;;;;5104760;28;20171;-68
2021/03/31 07:10:11;;;;;;;16.52;9.32;;;14.30;99.90;;;;;;5087487;28;20167;-68
2021/03/31 07:12:56;;;;;;;17.45;8.35;;;14.50;99.90;;;;;;5087444;28;20195;-68
2021/03/31 07:15:25;;;;;;;11.13;7.88;;;14.80;99.90;;;;;;5103176;28;20155;-69
2021/03/31 07:17:54;;;;;;;12.23;7.90;;;15.00;99.90;;;;;;5105691;28;20164;-68
2021/03/31 07:20:21;;;;;;;13.38;8.20;;;15.00;99.90;;;;;;5105803;28;20151;-68
2021/03/31 07:22:47;;;;;;;14.88;7.82;;;15.30;99.90;;;;;;5105423;28;20180;-68
2021/03/31 07:25:13;;;;;;;16.50;8.32;;;15.40;99.90;;;;;;5103210;28;20170;-68
2021/03/31 07:27:42;;;;;;;14.32;8.60;;;15.50;99.90;;;;;;5105564;28;20168;-68
2021/03/31 07:30:11;;;;;;;14.48;8.88;;;15.80;99.90;;;;;;5105217;28;20207;-68
2021/03/31 07:32:44;;;;;;;16.88;8.68;;;15.70;99.90;;;;;;5105121;28;20198;-68
2021/03/31 07:35:11;;;;;;;16.80;9.43;;;15.90;99.90;;;;;;5103440;28;20163;-69
2021/03/31 07:37:38;;;;;;;13.23;8.48;;;16.00;99.90;;;;;;5086366;28;20171;-69
2021/03/31 07:40:07;;;;;;;16.85;8.68;;;16.20;99.90;;;;;;5086614;28;20277;-68
2021/03/31 07:42:33;;;;;;;17.02;9.40;;;16.30;99.90;;;;;;5105242;28;20171;-68
2021/03/31 07:45:01;;;;;;;12.32;9.23;;;16.40;99.90;;;;;;5104486;28;20640;-68
2021/03/31 07:47:27;;;;;;;16.05;8.80;;;16.30;99.90;;;;;;5103761;28;20189;-68
2021/03/31 07:49:55;;;;;;;24.15;9.18;;;16.20;99.90;;;;;;5105246;28;20197;-68
2021/03/31 07:52:20;;;;;;;15.23;9.27;;;16.20;99.90;;;;;;5087010;28;20602;-68
2021/03/31 07:54:46;;;;;;;16.67;9.27;;;16.50;99.90;;;;;;5087300;28;20231;-68
2021/03/31 07:57:31;;;;;;;17.92;9.32;;;16.60;99.90;;;;;;5102828;28;20547;-68
2021/03/31 07:59:56;;;;;;;15.63;9.80;;;16.60;99.90;;;;;;5105104;28;20190;-68
2021/03/31 08:02:24;;;;;;;14.48;9.52;;;16.70;99.90;;;;;;5104969;28;20194;-68
2021/03/31 08:04:49;;;;;;;15.27;9.70;;;17.00;99.90;;;;;;5105304;28;20171;-68
2021/03/31 08:07:33;;;;;;;13.55;9.73;;;16.90;99.90;;;;;;5102573;28;20160;-68
2021/03/31 08:10:32;;;;;;;15.75;10.05;;;16.80;99.90;;;;;;5105115;28;20658;-68
2021/03/31 08:13:27;;;;;;;16.50;9.52;;;16.90;99.90;;;;;;5104846;28;20264;-68
2021/03/31 08:15:57;;;;;;;13.90;10.25;;;17.00;99.90;;;;;;5106276;28;20160;-68
2021/03/31 08:18:24;;;;;;;21.65;10.98;;;16.90;99.90;;;;;;5109179;28;20242;-68
2021/03/31 08:20:52;;;;;;;15.50;10.48;;;16.90;99.90;;;;;;5109064;28;20156;-68
2021/03/31 08:23:44;;;;;;;15.07;10.30;;;16.80;99.90;;;;;;5090099;28;20199;-67
2021/03/31 08:26:38;;;;;;;17.13;10.73;;;16.80;99.90;;;;;;5087858;28;20167;-68
2021/03/31 08:29:11;;;;;;;14.48;10.30;;;16.80;99.90;;;;;;5108451;28;20218;-68
2021/03/31 08:31:41;;;;;;;23.05;10.43;;;17.10;99.90;;;;;;5108624;28;20198;-68
2021/03/31 08:34:10;;;;;;;19.75;11.38;;;17.10;99.90;;;;;;5090161;28;20290;-68
2021/03/31 08:36:37;;;;;;;20.42;11.25;;;17.30;99.90;;;;;;5106093;28;20163;-68
2021/03/31 08:39:06;;;;;;;21.17;12.20;;;17.40;99.90;;;;;;5106839;28;20491;-68
2021/03/31 08:41:32;;;;;;;24.35;12.70;;;17.80;99.90;;;;;;5108391;28;20187;-68
2021/03/31 08:44:24;;;;;;;17.73;11.65;;;18.10;99.90;;;;;;5089805;28;20170;-68
2021/03/31 08:46:54;;;;;;;34.22;12.50;;;18.20;99.90;;;;;;5105774;28;20163;-67
2021/03/31 08:49:30;;;;;;;23.85;12.30;;;18.00;99.90;;;;;;5108354;28;20163;-67
2021/03/31 08:52:01;;;;;;;21.42;12.52;;;17.90;99.90;;;;;;5107988;28;20191;-67
2021/03/31 08:54:46;;;;;;;21.83;12.88;;;17.90;99.90;;;;;;5108195;28;20167;-68
2021/03/31 08:57:13;;;;;;;25.65;14.20;;;18.00;99.90;;;;;;5087345;28;20258;-66
2021/03/31 08:59:40;;;;;;;23.60;13.25;;;17.90;99.90;;;;;;5108106;28;20163;-67
2021/03/31 09:02:07;;;;;;;31.90;14.88;;;18.00;99.90;;;;;;5089745;28;20167;-67
2021/03/31 09:04:33;;;;;;;28.63;15.88;;;17.90;99.90;;;;;;5089429;28;20588;-67
2021/03/31 09:07:01;;;;;;;34.38;14.43;;;18.10;99.90;;;;;;5104732;28;20675;-67
2021/03/31 09:09:37;;;;;;;30.52;15.30;;;18.20;99.90;;;;;;5107960;28;20584;-67
2021/03/31 09:12:11;;;;;;;33.38;14.80;;;18.30;99.90;;;;;;5107549;28;20199;-68
2021/03/31 09:14:41;;;;;;;28.67;15.55;;;18.40;99.90;;;;;;5107726;28;20562;-67
2021/03/31 09:17:25;;;;;;;35.40;15.60;;;18.60;99.90;;;;;;5104984;28;20186;-67
2021/03/31 09:20:19;;;;;;;33.97;15.73;;;19.10;99.90;;;;;;5107715;28;20162;-67
2021/03/31 09:22:45;;;;;;;29.95;14.60;;;19.20;99.90;;;;;;5102507;28;20214;-67
2021/03/31 09:25:18;;;;;;;31.20;16.77;;;19.20;99.90;;;;;;5104826;28;20184;-67
2021/03/31 09:27:44;;;;;;;31.35;16.88;;;19.00;99.90;;;;;;5107293;28;20167;-67
2021/03/31 09:30:14;;;;;;;37.50;17.48;;;19.10;99.90;;;;;;5106903;28;20405;-67
2021/03/31 09:32:52;;;;;;;43.00;18.13;;;19.40;99.90;;;;;;5107501;28;20190;-67
2021/03/31 09:35:19;;;;;;;42.55;18.48;;;19.80;99.90;;;;;;5104887;28;20388;-67
2021/03/31 09:37:46;;;;;;;41.75;17.70;;;19.80;99.90;;;;;;5088713;28;20175;-67
2021/03/31 09:40:22;;;;;;;35.85;16.83;;;20.00;99.90;;;;;;5107102;28;20235;-67
2021/03/31 09:43:08;;;;;;;39.03;18.67;;;20.00;99.90;;;;;;5107018;28;20159;-67
2021/03/31 09:45:34;;;;;;;40.33;17.23;;;20.00;99.90;;;;;;5104136;28;20179;-67
2021/03/31 09:48:02;;;;;;;51.47;21.85;;;19.90;99.90;;;;;;5106964;28;20191;-67
2021/03/31 09:50:29;;;;;;;49.50;20.77;;;19.90;99.90;;;;;;5107144;28;20159;-67
2021/03/31 09:53:00;;;;;;;38.22;18.50;;;19.90;99.90;;;;;;5106147;28;20198;-67
2021/03/31 09:55:27;;;;;;;34.65;17.65;;;20.00;99.90;;;;;;5086016;28;20676;-67
2021/03/31 09:57:53;;;;;;;39.50;19.88;;;20.00;99.90;;;;;;5088537;28;20171;-67
2021/03/31 10:00:21;;;;;;;41.65;21.08;;;20.10;99.90;;;;;;5088510;28;20187;-68
2021/03/31 10:02:47;;;;;;;46.35;21.52;;;20.40;99.90;;;;;;5106644;28;20175;-68
2021/03/31 10:05:19;;;;;;;46.50;22.23;;;20.40;99.90;;;;;;5104164;28;20202;-68
2021/03/31 10:08:21;;;;;;;56.00;24.42;;;20.50;99.90;;;;;;5106454;28;20189;-68
2021/03/31 10:10:55;;;;;;;49.80;22.02;;;20.50;99.90;;;;;;5090331;28;20695;-68
2021/03/31 10:13:24;;;;;;;57.78;24.95;;;20.50;99.90;;;;;;5106510;28;20217;-68
2021/03/31 10:16:01;;;;;;;52.65;24.02;;;20.80;99.90;;;;;;5103873;28;20174;-68
2021/03/31 10:18:32;;;;;;;58.13;25.30;;;20.70;99.90;;;;;;5106504;28;20162;-69
2021/03/31 10:20:59;;;;;;;47.70;23.25;;;20.80;99.90;;;;;;5106354;28;20633;-68
2021/03/31 10:23:31;;;;;;;54.33;23.70;;;21.00;99.90;;;;;;5105983;28;20167;-68
2021/03/31 10:26:22;;;;;;;61.45;27.05;;;21.30;99.90;;;;;;5103367;28;20163;-68
2021/03/31 10:28:48;;;;;;;58.75;27.15;;;21.60;99.90;;;;;;5106391;28;20214;-68
2021/03/31 10:31:18;;;;;;;58.33;26.52;;;21.80;99.90;;;;;;5105836;28;20160;-68
2021/03/31 10:33:46;;;;;;;70.70;32.10;;;22.20;99.90;;;;;;5105985;28;20202;-68
2021/03/31 10:36:13;;;;;;;63.83;28.77;;;22.10;99.90;;;;;;5085123;28;20715;-68
2021/03/31 10:38:52;;;;;;;59.60;27.65;;;22.20;99.90;;;;;;5105888;28;20191;-68
2021/03/31 10:46:44;;;;;;;60.50;27.90;;;22.40;99.90;;;;;;5106388;28;20164;-68
2021/03/31 10:47:20;;;;;;;47.75;24.08;;;22.40;99.90;;;;;;5103568;28;20606;-68
2021/03/31 10:49:51;;;;;;;48.67;22.95;;;22.50;99.90;;;;;;5105890;28;20187;-69
2021/03/31 10:52:28;;;;;;;49.55;23.85;;;22.50;99.90;;;;;;5087505;28;20210;-68
2021/03/31 10:54:55;;;;;;;49.17;23.30;;;22.60;99.90;;;;;;5105485;28;20211;-68
2021/03/31 10:57:21;;;;;;;46.78;22.77;;;22.50;99.90;;;;;;5103956;28;20219;-68
2021/03/31 10:59:47;;;;;;;47.35;24.15;;;22.60;99.90;;;;;;5105646;28;20185;-68
2021/03/31 11:02:13;;;;;;;42.95;22.25;;;22.70;99.90;;;;;;5105485;28;20235;-68
2021/03/31 11:04:42;;;;;;;39.53;20.23;;;22.80;99.90;;;;;;5105290;28;20340;-68
2021/03/31 11:07:08;;;;;;;36.83;19.48;;;22.90;99.90;;;;;;5102287;28;20667;-68
2021/03/31 11:09:34;;;;;;;45.58;21.08;;;23.00;99.90;;;;;;5105654;28;20163;-68
2021/03/31 11:11:59;;;;;;;41.20;20.15;;;23.10;99.90;;;;;;5105329;28;20198;-68
2021/03/31 11:14:28;;;;;;;41.50;20.70;;;23.40;99.90;;;;;;5105710;28;20174;-68
2021/03/31 11:16:59;;;;;;;37.58;19.80;;;24.00;99.90;;;;;;5103141;28;20159;-68
2021/03/31 11:27:37;;;;;;;39.45;19.10;;;24.40;99.90;;;;;;5105694;28;20192;-68
2021/03/31 11:30:06;;;;;;;43.13;20.50;;;24.20;99.90;;;;;;5105048;28;20275;-68
2021/03/31 11:32:32;;;;;;;36.65;16.98;;;24.40;99.90;;;;;;5105574;28;20235;-68
2021/03/31 11:34:58;;;;;;;37.40;18.17;;;24.60;99.90;;;;;;5104405;28;20206;-69
2021/03/31 11:37:23;;;;;;;57.63;19.60;;;24.80;99.90;;;;;;5103496;28;20617;-68
2021/03/31 11:39:49;;;;;;;39.13;19.33;;;24.80;99.90;;;;;;5105383;28;20156;-68
2021/03/31 11:42:15;;;;;;;30.50;16.20;;;24.80;99.90;;;;;;5105445;28;20236;-68
2021/03/31 11:44:40;;;;;;;30.75;15.70;;;24.60;99.90;;;;;;5105505;28;20168;-68
2021/03/31 11:47:06;;;;;;;29.58;15.07;;;24.70;99.90;;;;;;5084794;28;20167;-68
2021/03/31 11:49:32;;;;;;;29.02;15.52;;;25.00;99.90;;;;;;5107373;28;20159;-68
2021/03/31 11:51:57;;;;;;;33.28;17.25;;;24.70;99.90;;;;;;5109243;28;20183;-68
2021/03/31 11:54:23;;;;;;;37.63;16.88;;;24.90;99.90;;;;;;5109176;28;20227;-68
2021/03/31 11:56:48;;;;;;;36.78;16.77;;;25.20;99.90;;;;;;5106918;28;20223;-68
2021/03/31 11:59:14;;;;;;;32.67;16.77;;;25.20;99.90;;;;;;5091181;28;20163;-68
2021/03/31 12:01:40;;;;;;;32.88;16.75;;;25.40;99.90;;;;;;5109276;28;20180;-68
2021/03/31 12:04:05;;;;;;;38.53;17.13;;;25.60;99.90;;;;;;5108739;28;20163;-68
2021/03/31 12:06:31;;;;;;;27.70;15.85;;;25.30;99.90;;;;;;5106497;28;20663;-68
2021/03/31 12:08:57;;;;;;;29.02;15.38;;;25.10;99.70;;;;;;5108743;28;20183;-68
2021/03/31 12:11:22;;;;;;;30.35;15.35;;;25.40;99.50;;;;;;5109092;28;20164;-68
2021/03/31 12:13:48;;;;;;;25.85;14.63;;;25.60;98.00;;;;;;5108754;28;20161;-68
2021/03/31 12:16:13;;;;;;;26.65;14.68;;;25.80;98.60;;;;;;5106373;28;20160;-68
2021/03/31 12:18:39;;;;;;;27.00;13.70;;;26.00;98.90;;;;;;5108987;28;20208;-68
2021/03/31 12:21:06;;;;;;;30.38;14.90;;;26.00;99.20;;;;;;5090535;28;20171;-68
2021/03/31 12:23:32;;;;;;;26.83;12.77;;;26.00;97.50;;;;;;5108705;28;20224;-68
2021/03/31 12:25:59;;;;;;;23.35;11.32;;;26.30;95.50;;;;;;5087837;28;20630;-68
2021/03/31 12:28:26;;;;;;;26.52;13.02;;;26.10;96.20;;;;;;5090454;28;20226;-68
2021/03/31 12:30:52;;;;;;;36.80;14.60;;;26.10;96.70;;;;;;5108599;28;20152;-68
2021/03/31 12:33:18;;;;;;;28.55;15.13;;;26.00;97.30;;;;;;5108593;28;20259;-68
2021/03/31 12:35:44;;;;;;;25.80;13.50;;;26.20;96.10;;;;;;5105897;28;20163;-68
2021/03/31 12:38:10;;;;;;;33.78;15.02;;;26.20;97.00;;;;;;5108078;28;20171;-68
2021/03/31 12:40:35;;;;;;;24.20;13.82;;;26.40;97.10;;;;;;5108567;28;20163;-69
2021/03/31 12:43:01;;;;;;;27.40;13.93;;;26.20;96.50;;;;;;5108024;28;20156;-66
2021/03/31 12:45:27;;;;;;;35.25;14.32;;;25.80;95.00;;;;;;5105438;28;20178;-66
2021/03/31 12:47:53;;;;;;;27.35;13.50;;;25.80;96.70;;;;;;5108234;28;20167;-67
2021/03/31 12:50:20;;;;;;;26.67;12.68;;;26.00;96.00;;;;;;5108235;28;20163;-66
2021/03/31 12:52:56;;;;;;;29.00;14.32;;;26.40;97.00;;;;;;5108168;28;20240;-67
2021/03/31 12:55:37;;;;;;;31.50;13.90;;;26.80;95.90;;;;;;5105662;28;20443;-68